Terminal Aerodrome Forecast
Issued by NWS Wakefield, VA

Home | Current Version | Previous Version | Text Only | Print | Product List | Glossary On
Versions: 1 2 3 4 5 6 7 8 9 10 11 12 13 14 15 16 17 18
000
FTUS41 KAKQ 301729
TAFECG
TAF
KECG 301729Z 3018/3118 13009KT P6SM SCT040
     FM310000 18005KT P6SM SKC
     FM311000 20003KT 3SM BR SCT002
     FM311500 21006KT P6SM SCT250=

USA.gov is the U.S. government's official web portal to all federal, state and local government web resources and services.